createdAt,value
2018-03-22T00:00:07.940Z,33.6
2018-03-22T00:00:57.326Z,33.1
2018-03-22T00:01:47.664Z,32.7
2018-03-22T00:02:38.639Z,32.2
2018-03-22T00:03:28.021Z,31.8
2018-03-22T00:04:16.225Z,31.4
2018-03-22T00:05:08.038Z,31.3
2018-03-22T00:05:57.224Z,31
2018-03-22T00:06:48.431Z,30.8
2018-03-22T00:07:36.801Z,30.9
2018-03-22T00:08:28.164Z,30.9
2018-03-22T00:09:18.334Z,30.9
2018-03-22T00:10:06.794Z,30.9
2018-03-22T00:10:58.197Z,30.8
2018-03-22T00:11:48.713Z,30.2
2018-03-22T00:12:37.191Z,31
2018-03-22T00:13:27.988Z,31.4
2018-03-22T00:14:17.247Z,31.9
2018-03-22T00:15:07.318Z,32.3
2018-03-22T00:15:57.488Z,32.6
2018-03-22T00:16:48.992Z,32.9
2018-03-22T00:17:38.704Z,33.3
2018-03-22T00:18:28.955Z,33.5
2018-03-22T00:19:18.473Z,33.7
2018-03-22T00:20:08.853Z,33.9
2018-03-22T00:20:58.935Z,34.1
2018-03-22T00:21:48.492Z,34.2
2018-03-22T00:22:39.210Z,34.3
2018-03-22T00:23:29.870Z,34.5
2018-03-22T00:24:19.276Z,33.9
2018-03-22T00:25:08.840Z,33.1
2018-03-22T00:25:58.953Z,31.4
2018-03-22T00:26:49.631Z,30.2
2018-03-22T00:27:40.181Z,28.8
2018-03-22T00:28:30.377Z,27.4
2018-03-22T00:29:19.642Z,25.8
2018-03-22T00:30:09.179Z,25.9
2018-03-22T00:30:58.249Z,26.1
2018-03-22T00:32:39.495Z,29.3
2018-03-22T00:33:29.688Z,30.4
2018-03-22T00:34:19.025Z,31.3
2018-03-22T00:35:08.827Z,32
2018-03-22T00:35:59.305Z,32.5
2018-03-22T00:36:50.609Z,32.9
2018-03-22T00:37:39.195Z,33.3
2018-03-22T00:38:29.982Z,33.6
2018-03-22T00:39:20.388Z,33.9
2018-03-22T00:40:10.482Z,34.1
2018-03-22T00:40:59.927Z,34.4
2018-03-22T00:41:50.959Z,34.6
2018-03-22T00:42:40.876Z,34.7
2018-03-22T00:43:30.379Z,34.8
2018-03-22T00:44:20.217Z,34.9
2018-03-22T00:45:11.027Z,35.1
2018-03-22T00:45:59.484Z,35.2
2018-03-22T00:46:50.714Z,35.3
2018-03-22T00:47:40.574Z,34.6
2018-03-22T00:48:29.692Z,34.4
2018-03-22T00:49:20.890Z,33.9
2018-03-22T00:50:11.339Z,33.6
2018-03-22T00:51:00.909Z,33.1
2018-03-22T00:51:50.791Z,32.6
2018-03-22T00:52:40.767Z,32.1
2018-03-22T00:53:31.416Z,31.7
2018-03-22T00:54:21.099Z,31.3
2018-03-22T00:55:10.566Z,30.9
2018-03-22T00:56:01.149Z,30.7
2018-03-22T00:56:51.051Z,30.5
2018-03-22T00:57:41.698Z,30.6
2018-03-22T00:58:31.051Z,30.7
2018-03-22T00:59:20.515Z,30.7
2018-03-22T01:00:12.364Z,30.7
2018-03-22T01:01:02.147Z,30.3
2018-03-22T01:01:51.456Z,30.6
2018-03-22T01:02:41.831Z,31.3
2018-03-22T01:03:30.675Z,31.8
2018-03-22T01:04:22.239Z,32.2
2018-03-22T01:05:11.997Z,32.6
2018-03-22T01:06:01.942Z,32.9
2018-03-22T01:06:53.070Z,33.3
2018-03-22T01:07:42.146Z,33.5
2018-03-22T01:08:31.048Z,33.8
2018-03-22T01:09:23.193Z,33.9
2018-03-22T01:10:12.568Z,34.1
2018-03-22T01:11:01.824Z,34.3
2018-03-22T01:11:53.040Z,34.4
2018-03-22T01:12:42.230Z,34.6
2018-03-22T01:13:32.074Z,34.7
2018-03-22T01:14:22.450Z,34.8
2018-03-22T01:15:13.103Z,34.9
2018-03-22T01:16:03.255Z,35.1
2018-03-22T01:16:52.715Z,35.1
2018-03-22T01:17:43.886Z,35.2
2018-03-22T01:18:32.067Z,35
2018-03-22T01:19:23.630Z,34.6
2018-03-22T01:20:12.648Z,34.3
2018-03-22T01:21:02.396Z,33.9
2018-03-22T01:21:52.460Z,33.4
2018-03-22T01:22:43.274Z,32.9
2018-03-22T01:23:31.919Z,32.5
2018-03-22T01:24:23.314Z,32.1
2018-03-22T01:25:12.595Z,31.6
2018-03-22T01:26:03.468Z,31.3
2018-03-22T01:26:53.987Z,30.9
2018-03-22T01:27:43.671Z,30.8
2018-03-22T01:28:32.818Z,30.8
2018-03-22T01:29:21.894Z,30.8
2018-03-22T01:30:13.433Z,30.8
2018-03-22T01:31:03.684Z,30.8
2018-03-22T01:31:53.516Z,30.8
2018-03-22T01:32:43.944Z,30.3
2018-03-22T01:33:33.839Z,30.9
2018-03-22T01:34:24.352Z,31.4
2018-03-22T01:35:14.330Z,31.9
2018-03-22T01:36:03.736Z,32.3
2018-03-22T01:36:55.014Z,32.6
2018-03-22T01:37:44.968Z,32.9
2018-03-22T01:38:33.222Z,33.3
2018-03-22T01:39:24.666Z,33.4
2018-03-22T01:40:14.162Z,33.7
2018-03-22T01:41:04.294Z,33.8
2018-03-22T01:41:54.209Z,34
2018-03-22T01:42:43.967Z,34.2
2018-03-22T01:43:34.661Z,34.3
2018-03-22T01:44:24.666Z,34.4
2018-03-22T01:45:13.672Z,34.6
2018-03-22T01:46:05.138Z,34.7
2018-03-22T01:46:54.696Z,34.8
2018-03-22T01:47:44.878Z,34.9
2018-03-22T01:48:34.726Z,35
2018-03-22T01:49:25.074Z,35.1
2018-03-22T01:50:15.600Z,35.1
2018-03-22T01:51:04.736Z,35.3
2018-03-22T01:51:55.141Z,34.7
2018-03-22T01:52:44.807Z,34.4
2018-03-22T01:53:34.390Z,34.1
2018-03-22T01:54:25.393Z,33.6
2018-03-22T01:55:14.505Z,33.2
2018-03-22T01:56:05.081Z,32.7
2018-03-22T01:56:55.723Z,32.3
2018-03-22T01:57:45.365Z,31.8
2018-03-22T01:58:36.210Z,31.4
2018-03-22T01:59:25.315Z,31.1
2018-03-22T02:00:16.076Z,30.8
2018-03-22T02:01:06.340Z,30.6
2018-03-22T02:01:55.736Z,30.7
2018-03-22T02:02:46.418Z,30.8
2018-03-22T02:03:36.430Z,30.8
2018-03-22T02:04:25.460Z,30.8
2018-03-22T02:05:16.164Z,30.6
2018-03-22T02:06:05.580Z,30.3
2018-03-22T02:06:57.049Z,31.1
2018-03-22T02:07:45.719Z,31.6
2018-03-22T02:08:35.212Z,32
2018-03-22T02:09:27.169Z,32.4
2018-03-22T02:10:16.266Z,32.7
2018-03-22T02:11:06.968Z,33
2018-03-22T02:11:57.622Z,33.3
2018-03-22T02:12:45.625Z,33.5
2018-03-22T02:13:35.926Z,33.7
2018-03-22T02:14:26.941Z,33.9
2018-03-22T02:15:16.577Z,34.1
2018-03-22T02:16:06.664Z,34.2
2018-03-22T02:16:55.847Z,34.3
2018-03-22T02:17:47.381Z,34.4
2018-03-22T02:18:36.729Z,34.6
2018-03-22T02:19:27.692Z,34.6
2018-03-22T02:20:17.435Z,34.8
2018-03-22T02:21:06.989Z,34.8
2018-03-22T02:21:57.319Z,34.9
2018-03-22T02:22:47.409Z,35
2018-03-22T02:23:37.451Z,35.1
2018-03-22T02:24:28.211Z,35.1
2018-03-22T02:25:16.221Z,35.2
2018-03-22T02:26:08.086Z,35.3
2018-03-22T02:26:58.014Z,34.6
2018-03-22T02:27:48.180Z,34.4
2018-03-22T02:28:38.411Z,34
2018-03-22T02:29:27.522Z,33.6
2018-03-22T02:30:18.370Z,33.1
2018-03-22T02:31:08.212Z,32.7
2018-03-22T02:31:57.488Z,32.3
2018-03-22T02:32:48.425Z,31.8
2018-03-22T02:33:38.625Z,31.4
2018-03-22T02:34:28.362Z,31.1
2018-03-22T02:35:18.733Z,30.9
2018-03-22T02:36:06.909Z,30.9
2018-03-22T02:36:58.525Z,30.9
2018-03-22T02:37:48.778Z,30.9
2018-03-22T02:38:37.751Z,30.9
2018-03-22T02:39:28.803Z,30.8
2018-03-22T02:40:19.273Z,30.4
2018-03-22T02:41:08.272Z,30.6
2018-03-22T02:41:58.765Z,31.3
2018-03-22T02:42:47.896Z,31.7
2018-03-22T02:43:38.614Z,32
2018-03-22T02:44:29.141Z,32.4
2018-03-22T02:45:19.069Z,32.7
2018-03-22T02:46:09.979Z,32.9
2018-03-22T02:46:58.735Z,33.2
2018-03-22T02:47:48.717Z,33.4
2018-03-22T02:48:39.065Z,33.6
2018-03-22T02:49:29.411Z,33.8
2018-03-22T02:50:20.325Z,33.9
2018-03-22T02:51:09.137Z,34.1
2018-03-22T02:51:59.450Z,34.1
2018-03-22T02:52:49.532Z,34.3
2018-03-22T02:53:39.078Z,34.4
2018-03-22T02:54:29.054Z,34.4
2018-03-22T02:55:19.439Z,34.5
2018-03-22T02:56:09.599Z,34.6
2018-03-22T02:57:00.343Z,34.7
2018-03-22T02:57:49.690Z,34.7
2018-03-22T02:58:40.328Z,34.8
2018-03-22T02:59:29.548Z,34.8
2018-03-22T03:00:20.978Z,34.9
2018-03-22T03:01:09.335Z,34.9
2018-03-22T03:02:00.702Z,34.9
2018-03-22T03:02:50.157Z,34.9
2018-03-22T03:03:39.111Z,35
2018-03-22T03:04:29.441Z,35
2018-03-22T03:05:19.299Z,35.1
2018-03-22T03:06:10.064Z,35.1
2018-03-22T03:07:00.061Z,35.1
2018-03-22T03:07:50.681Z,35.1
2018-03-22T03:08:41.124Z,35.1
2018-03-22T03:09:29.801Z,34.6
2018-03-22T03:10:19.659Z,33.9
2018-03-22T03:11:10.212Z,32.1
2018-03-22T03:11:59.636Z,31
2018-03-22T03:12:51.064Z,29.9
2018-03-22T03:13:40.750Z,28.8
2018-03-22T03:14:31.486Z,27.4
2018-03-22T03:15:20.368Z,25.9
2018-03-22T03:16:11.649Z,24.6
2018-03-22T03:17:00.328Z,24.9
2018-03-22T03:17:50.824Z,25.3
2018-03-22T03:18:40.902Z,27.3
2018-03-22T03:19:31.902Z,28.9
2018-03-22T03:20:20.823Z,30.1
2018-03-22T03:21:11.480Z,31
2018-03-22T03:22:02.497Z,31.8
2018-03-22T03:22:51.300Z,32.3
2018-03-22T03:23:42.069Z,32.8
2018-03-22T03:24:30.623Z,33.1
2018-03-22T03:25:21.444Z,33.5
2018-03-22T03:26:11.614Z,33.8
2018-03-22T03:27:00.799Z,34
2018-03-22T03:27:51.627Z,34.3
2018-03-22T03:28:41.914Z,34.4
2018-03-22T03:29:32.772Z,34.6
2018-03-22T03:30:22.893Z,34.8
2018-03-22T03:31:12.514Z,34.9
2018-03-22T03:32:02.676Z,35
2018-03-22T03:32:52.017Z,35.1
2018-03-22T03:33:41.961Z,35.3
2018-03-22T03:34:33.048Z,35.2
2018-03-22T03:35:21.974Z,34.6
2018-03-22T03:36:13.449Z,34.3
2018-03-22T03:37:02.522Z,33.9
2018-03-22T03:37:51.091Z,33.5
2018-03-22T03:38:41.142Z,33
2018-03-22T03:39:31.737Z,32.5
2018-03-22T03:40:22.358Z,32.1
2018-03-22T03:41:12.474Z,31.6
2018-03-22T03:42:02.280Z,31.2
2018-03-22T03:42:52.396Z,30.9
2018-03-22T03:43:44.133Z,30.6
2018-03-22T03:44:32.637Z,30.6
2018-03-22T03:45:22.616Z,30.7
2018-03-22T03:46:12.329Z,30.8
2018-03-22T03:47:03.699Z,30.8
2018-03-22T03:47:52.920Z,30.7
2018-03-22T03:48:44.331Z,30.2
2018-03-22T03:49:32.907Z,30.8
2018-03-22T03:50:23.474Z,31.4
2018-03-22T03:51:13.523Z,31.8
2018-03-22T03:52:02.849Z,32.3
2018-03-22T03:52:54.398Z,32.6
2018-03-22T03:53:43.369Z,32.9
2018-03-22T03:54:34.014Z,33.3
2018-03-22T03:55:23.467Z,33.4
2018-03-22T03:56:13.157Z,33.7
2018-03-22T03:57:04.743Z,33.9
2018-03-22T03:57:53.154Z,34.1
2018-03-22T03:58:43.576Z,34.3
2018-03-22T03:59:35.000Z,34.4
2018-03-22T04:00:23.982Z,34.5
2018-03-22T04:01:14.457Z,34.6
2018-03-22T04:02:03.776Z,34.8
2018-03-22T04:02:54.638Z,34.8
2018-03-22T04:03:44.437Z,34.9
2018-03-22T04:04:34.912Z,35.1
2018-03-22T04:05:24.949Z,35.1
2018-03-22T04:06:14.041Z,35.2
2018-03-22T04:07:03.508Z,35.3
2018-03-22T04:07:54.345Z,34.7
2018-03-22T04:08:44.295Z,34.4
2018-03-22T04:09:34.746Z,34.1
2018-03-22T04:10:25.409Z,33.6
2018-03-22T04:11:15.484Z,33.1
2018-03-22T04:12:06.171Z,32.6
2018-03-22T04:12:55.792Z,32.2
2018-03-22T04:13:45.036Z,31.8
2018-03-22T04:14:35.586Z,31.3
2018-03-22T04:15:25.344Z,31
2018-03-22T04:16:15.010Z,30.8
2018-03-22T04:17:05.946Z,30.8
2018-03-22T04:17:55.113Z,30.9
2018-03-22T04:18:45.002Z,30.9
2018-03-22T04:19:35.837Z,30.8
2018-03-22T04:20:26.467Z,30.8
2018-03-22T04:21:15.440Z,30.3
2018-03-22T04:22:04.932Z,30.8
2018-03-22T04:22:55.712Z,31.4
2018-03-22T04:23:44.160Z,31.8
2018-03-22T04:24:35.997Z,32.2
2018-03-22T04:25:25.687Z,32.6
2018-03-22T04:26:14.645Z,32.9
2018-03-22T04:27:06.841Z,33.1
2018-03-22T04:27:56.674Z,33.4
2018-03-22T04:28:45.825Z,33.6
2018-03-22T04:29:36.982Z,33.8
2018-03-22T04:30:26.010Z,33.9
2018-03-22T04:31:16.864Z,34.1
2018-03-22T04:32:06.541Z,34.3
2018-03-22T04:32:56.171Z,34.4
2018-03-22T04:33:46.625Z,34.5
2018-03-22T04:34:37.628Z,34.6
2018-03-22T04:35:26.583Z,34.7
2018-03-22T04:36:15.942Z,34.8
2018-03-22T04:37:06.781Z,34.9
2018-03-22T04:37:56.729Z,34.9
2018-03-22T04:38:47.030Z,35.1
2018-03-22T04:39:37.138Z,35.1
2018-03-22T04:40:26.894Z,35.2
2018-03-22T04:41:16.953Z,35.3
2018-03-22T04:42:06.333Z,34.8
2018-03-22T04:42:57.889Z,34.4
2018-03-22T04:43:47.238Z,34.1
2018-03-22T04:44:37.315Z,33.7
2018-03-22T04:45:28.175Z,33.3
2018-03-22T04:46:16.997Z,32.8
2018-03-22T04:47:06.930Z,32.3
2018-03-22T04:47:57.185Z,31.9
2018-03-22T04:48:48.520Z,31.4
2018-03-22T04:49:37.046Z,31.1
2018-03-22T04:50:27.111Z,30.8
2018-03-22T04:51:17.595Z,30.9
2018-03-22T04:52:07.315Z,30.9
2018-03-22T04:52:57.515Z,30.9
2018-03-22T04:53:49.433Z,30.8
2018-03-22T04:54:39.817Z,30.8
2018-03-22T04:55:29.242Z,30.7
2018-03-22T04:56:19.590Z,30.6
2018-03-22T04:57:08.737Z,30.5
2018-03-22T04:57:59.445Z,30.4
2018-03-22T04:58:49.250Z,30.3
2018-03-22T04:59:39.586Z,30.3
2018-03-22T05:00:29.331Z,29.7
2018-03-22T05:01:19.967Z,30.4
2018-03-22T05:02:08.038Z,31.1
2018-03-22T05:02:59.794Z,31.4
2018-03-22T05:03:49.610Z,31.9
2018-03-22T05:04:39.627Z,32.3
2018-03-22T05:05:29.947Z,32.5
2018-03-22T05:06:20.657Z,32.8
2018-03-22T05:07:10.445Z,33.1
2018-03-22T05:08:00.726Z,33.3
2018-03-22T05:08:49.624Z,33.5
2018-03-22T05:09:40.812Z,33.6
2018-03-22T05:10:31.173Z,33.8
2018-03-22T05:11:20.682Z,33.9
2018-03-22T05:12:10.192Z,34.1
2018-03-22T05:13:00.174Z,34.2
2018-03-22T05:13:50.132Z,34.3
2018-03-22T05:14:41.213Z,34.4
2018-03-22T05:15:30.506Z,34.4
2018-03-22T05:16:20.738Z,34.6
2018-03-22T05:17:10.277Z,34.6
2018-03-22T05:18:00.822Z,34.7
2018-03-22T05:18:51.399Z,34.8
2018-03-22T05:19:40.356Z,34.8
2018-03-22T05:20:31.028Z,34.9
2018-03-22T05:21:21.348Z,34.9
2018-03-22T05:22:11.697Z,34.9
2018-03-22T05:23:00.882Z,35
2018-03-22T05:23:52.117Z,35.1
2018-03-22T05:24:41.644Z,35.1
2018-03-22T05:25:31.704Z,35.1
2018-03-22T05:26:21.959Z,35.2
2018-03-22T05:27:11.493Z,35
2018-03-22T05:28:02.100Z,34.5
2018-03-22T05:28:52.139Z,34.2
2018-03-22T05:29:42.174Z,33.8
2018-03-22T05:30:31.985Z,33.4
2018-03-22T05:31:22.632Z,32.9
2018-03-22T05:32:12.101Z,32.4
2018-03-22T05:33:01.832Z,32
2018-03-22T05:33:52.241Z,31.6
2018-03-22T05:34:42.289Z,31.3
2018-03-22T05:35:32.873Z,30.9
2018-03-22T05:36:22.911Z,30.8
2018-03-22T05:37:12.728Z,30.8
2018-03-22T05:38:02.781Z,30.8
2018-03-22T05:38:52.862Z,30.8
2018-03-22T05:39:43.171Z,30.8
2018-03-22T05:40:32.940Z,30.6
2018-03-22T05:41:22.948Z,30.6
2018-03-22T05:42:11.820Z,30.4
2018-03-22T05:43:01.908Z,30.4
2018-03-22T05:43:51.997Z,30.3
2018-03-22T05:44:42.003Z,30.1
2018-03-22T05:45:30.100Z,29.8
2018-03-22T05:46:21.713Z,30
2018-03-22T05:47:11.435Z,30.7
2018-03-22T05:48:02.327Z,31.1
2018-03-22T05:48:52.478Z,31.6
2018-03-22T05:49:42.499Z,31.9
2018-03-22T05:50:32.505Z,32.2
2018-03-22T05:51:20.947Z,32.4
2018-03-22T05:52:12.150Z,32.6
2018-03-22T05:53:02.029Z,32.9
2018-03-22T05:53:52.568Z,33
2018-03-22T05:54:42.064Z,33.2
2018-03-22T05:55:32.394Z,33.3
2018-03-22T05:56:21.705Z,33.4
2018-03-22T05:57:12.419Z,33.6
2018-03-22T05:58:02.514Z,33.7
2018-03-22T05:58:52.948Z,33.8
2018-03-22T05:59:42.708Z,33.9
2018-03-22T06:00:33.232Z,33.9
2018-03-22T06:01:23.636Z,34
2018-03-22T06:02:12.901Z,34.1
2018-03-22T06:03:03.047Z,34.1
2018-03-22T06:03:52.811Z,34.2
2018-03-22T06:04:43.040Z,34.2
2018-03-22T06:05:32.251Z,34.3
2018-03-22T06:06:22.480Z,34.3
2018-03-22T06:07:12.429Z,33.9
2018-03-22T06:08:03.030Z,33.1
2018-03-22T06:08:54.025Z,31.4
2018-03-22T06:09:43.692Z,30.2
2018-03-22T06:10:33.361Z,29.2
2018-03-22T06:11:24.302Z,28
2018-03-22T06:12:12.983Z,26.6
2018-03-22T06:13:03.299Z,25.2
2018-03-22T06:13:52.940Z,24.2
2018-03-22T06:14:44.437Z,24.5
2018-03-22T06:15:31.270Z,25.4
2018-03-22T06:16:24.681Z,27.2
2018-03-22T06:17:12.980Z,28.8
2018-03-22T06:18:04.365Z,29.9
2018-03-22T06:18:54.069Z,30.9
2018-03-22T06:19:43.018Z,31.6
2018-03-22T06:20:33.663Z,32.1
2018-03-22T06:21:23.541Z,32.6
2018-03-22T06:22:14.174Z,32.9
2018-03-22T06:23:03.930Z,33.3
2018-03-22T06:23:53.882Z,33.6
2018-03-22T06:24:42.783Z,33.8
2018-03-22T06:25:33.334Z,34
2018-03-22T06:26:23.905Z,34.2
2018-03-22T06:27:13.022Z,34.3
2018-03-22T06:28:05.153Z,34.5
2018-03-22T06:28:55.480Z,34.6
2018-03-22T06:29:44.716Z,34.8
2018-03-22T06:30:33.296Z,34.9
2018-03-22T06:31:24.290Z,35
2018-03-22T06:32:15.041Z,35.1
2018-03-22T06:33:05.023Z,35.2
2018-03-22T06:33:53.108Z,35.3
2018-03-22T06:34:45.200Z,35.3
2018-03-22T06:35:35.130Z,34.8
2018-03-22T06:36:25.087Z,34.4
2018-03-22T06:37:15.928Z,34.1
2018-03-22T06:38:05.133Z,33.6
2018-03-22T06:38:55.318Z,33.2
2018-03-22T06:39:45.486Z,32.7
2018-03-22T06:40:33.997Z,32.3
2018-03-22T06:41:24.747Z,31.8
2018-03-22T06:42:14.169Z,31.3
2018-03-22T06:43:04.305Z,30.9
2018-03-22T06:43:55.037Z,30.6
2018-03-22T06:44:45.363Z,30.6
2018-03-22T06:45:35.580Z,30.3
2018-03-22T06:46:25.094Z,30
2018-03-22T06:47:15.758Z,29.8
2018-03-22T06:48:05.702Z,29.6
2018-03-22T06:48:55.223Z,29.4
2018-03-22T06:49:46.416Z,29.3
2018-03-22T06:50:35.919Z,29.2
2018-03-22T06:51:25.415Z,29.1
2018-03-22T06:52:16.262Z,29.1
2018-03-22T06:53:07.484Z,28.9
2018-03-22T06:53:55.959Z,29.9
2018-03-22T06:54:46.570Z,30.6
2018-03-22T06:55:35.424Z,31.3
2018-03-22T06:56:25.007Z,31.8
2018-03-22T06:57:14.925Z,32.2
2018-03-22T06:58:07.529Z,32.6
2018-03-22T06:58:56.124Z,32.9
2018-03-22T06:59:46.076Z,33.2
2018-03-22T07:00:37.031Z,33.4
2018-03-22T07:01:27.084Z,33.7
2018-03-22T07:02:16.600Z,33.8
2018-03-22T07:03:07.584Z,34
2018-03-22T07:03:58.056Z,34.2
2018-03-22T07:04:48.158Z,34.3
2018-03-22T07:05:37.025Z,34.4
2018-03-22T07:06:27.051Z,34.6
2018-03-22T07:07:15.896Z,34.7
2018-03-22T07:08:07.536Z,34.8
2018-03-22T07:08:56.496Z,34.8
2018-03-22T07:09:47.558Z,34.9
2018-03-22T07:10:37.753Z,35
2018-03-22T07:11:26.890Z,35.1
2018-03-22T07:12:17.773Z,35.1
2018-03-22T07:13:07.215Z,35.2
2018-03-22T07:13:57.193Z,35.3
2018-03-22T07:14:47.403Z,35.3
2018-03-22T07:15:36.738Z,35.1
2018-03-22T07:16:28.116Z,34.6
2018-03-22T07:17:18.388Z,34.2
2018-03-22T07:18:08.084Z,33.8
2018-03-22T07:18:57.242Z,33.3
2018-03-22T07:19:48.396Z,32.9
2018-03-22T07:20:37.636Z,32.4
2018-03-22T07:21:28.928Z,31.9
2018-03-22T07:22:18.047Z,31.5
2018-03-22T07:23:07.756Z,31.1
2018-03-22T07:23:58.423Z,30.7
2018-03-22T07:24:48.307Z,30.5
2018-03-22T07:25:36.592Z,30.4
2018-03-22T07:26:28.375Z,30.1
2018-03-22T07:27:19.151Z,29.9
2018-03-22T07:28:08.123Z,29.6
2018-03-22T07:28:58.805Z,29.4
2018-03-22T07:29:49.339Z,29.3
2018-03-22T07:30:38.588Z,29.2
2018-03-22T07:31:29.417Z,29.1
2018-03-22T07:32:19.607Z,28.9
2018-03-22T07:33:08.806Z,28.9
2018-03-22T07:33:59.740Z,28.9
2018-03-22T07:34:49.452Z,29.9
2018-03-22T07:35:41.234Z,30.6
2018-03-22T07:36:30.704Z,31.3
2018-03-22T07:37:20.484Z,31.7
2018-03-22T07:38:10.695Z,32.1
2018-03-22T07:39:00.626Z,32.4
2018-03-22T07:39:50.700Z,32.8
2018-03-22T07:40:39.545Z,33
2018-03-22T07:41:29.120Z,33.3
2018-03-22T07:42:19.918Z,33.4
2018-03-22T07:43:09.365Z,33.6
2018-03-22T07:43:59.356Z,33.8
2018-03-22T07:44:49.508Z,33.9
2018-03-22T07:45:39.555Z,34
2018-03-22T07:46:29.433Z,34.1
2018-03-22T07:47:20.315Z,34.2
2018-03-22T07:48:10.456Z,34.3
2018-03-22T07:49:00.653Z,34.4
2018-03-22T07:49:50.735Z,34.4
2018-03-22T07:50:38.622Z,34.5
2018-03-22T07:51:29.962Z,34.6
2018-03-22T07:52:19.408Z,34.6
2018-03-22T07:53:11.946Z,34.6
2018-03-22T07:54:01.395Z,34.7
2018-03-22T07:54:51.791Z,34.7
2018-03-22T07:55:40.311Z,34.8
2018-03-22T07:56:29.807Z,34.8
2018-03-22T07:57:21.654Z,34.8
2018-03-22T07:58:10.975Z,34.8
2018-03-22T07:59:01.215Z,34.8
2018-03-22T07:59:51.352Z,34.8
2018-03-22T08:00:40.484Z,34.8
2018-03-22T08:01:28.693Z,34.9
2018-03-22T08:02:20.175Z,34.9
2018-03-22T08:03:11.451Z,34.9
2018-03-22T08:04:00.894Z,34.9
2018-03-22T08:04:50.987Z,34.9
2018-03-22T08:05:40.727Z,34.9
2018-03-22T08:06:31.204Z,34.9
2018-03-22T08:07:21.050Z,34.9
2018-03-22T08:08:12.116Z,34.9
2018-03-22T08:09:01.057Z,34.9
2018-03-22T08:09:52.306Z,34.9
2018-03-22T08:10:41.174Z,34.9
2018-03-22T08:11:31.454Z,34.9
2018-03-22T08:12:21.619Z,34.9
2018-03-22T08:13:11.555Z,34.8
2018-03-22T08:14:01.034Z,34.8
2018-03-22T08:14:51.758Z,34.8
2018-03-22T08:15:41.551Z,34.8
2018-03-22T08:16:31.907Z,34.8
2018-03-22T08:17:21.981Z,34.8
2018-03-22T08:18:12.580Z,34.8
2018-03-22T08:19:01.724Z,34.8
2018-03-22T08:19:50.991Z,34.7
2018-03-22T08:20:42.939Z,34.7
2018-03-22T08:21:32.000Z,34.7
2018-03-22T08:22:21.904Z,34.7
2018-03-22T08:23:11.773Z,34.7
2018-03-22T08:24:01.585Z,34.6
2018-03-22T08:24:52.317Z,34.6
2018-03-22T08:25:41.561Z,34.6
2018-03-22T08:26:33.481Z,34.6
2018-03-22T08:27:22.306Z,34.6
2018-03-22T08:28:12.471Z,34.6
2018-03-22T08:29:03.133Z,34.6
2018-03-22T08:29:53.173Z,34.6
2018-03-22T08:30:41.836Z,34.5
2018-03-22T08:31:32.655Z,34.5
2018-03-22T08:32:23.335Z,34.4
2018-03-22T08:33:12.437Z,34.4
2018-03-22T08:34:03.133Z,34.4
2018-03-22T08:34:54.278Z,34.1
2018-03-22T08:35:43.123Z,33.3
2018-03-22T08:36:33.888Z,31.7
2018-03-22T08:37:23.192Z,30.5
2018-03-22T08:38:13.655Z,29.4
2018-03-22T08:39:03.109Z,28.3
2018-03-22T08:39:53.426Z,27
2018-03-22T08:40:43.930Z,25.6
2018-03-22T08:41:34.230Z,24.2
2018-03-22T08:42:24.607Z,24.1
2018-03-22T08:43:15.340Z,24.4
2018-03-22T08:44:03.444Z,26.3
2018-03-22T08:44:53.869Z,28
2018-03-22T08:45:43.667Z,29.4
2018-03-22T08:46:34.915Z,30.5
2018-03-22T08:47:24.015Z,31.4
2018-03-22T08:48:13.958Z,31.9
2018-03-22T08:49:04.107Z,32.5
2018-03-22T08:49:54.342Z,32.9
2018-03-22T08:50:44.367Z,33.3
2018-03-22T08:51:34.677Z,33.6
2018-03-22T08:52:24.157Z,33.9
2018-03-22T08:53:12.928Z,34.1
2018-03-22T08:54:05.357Z,34.3
2018-03-22T08:54:56.939Z,34.5
2018-03-22T08:55:45.679Z,34.7
2018-03-22T08:56:36.494Z,34.8
2018-03-22T08:57:26.089Z,35
2018-03-22T08:58:15.930Z,35.1
2018-03-22T08:59:05.427Z,35.3
2018-03-22T08:59:54.324Z,35.4
2018-03-22T09:00:45.514Z,34.8
2018-03-22T09:01:34.387Z,34.5
2018-03-22T09:02:25.173Z,34.1
2018-03-22T09:03:15.746Z,33.7
2018-03-22T09:04:05.221Z,33.3
2018-03-22T09:04:55.780Z,32.8
2018-03-22T09:05:45.956Z,32.3
2018-03-22T09:06:35.283Z,31.8
2018-03-22T09:07:25.279Z,31.4
2018-03-22T09:08:15.179Z,31
2018-03-22T09:09:06.284Z,30.7
2018-03-22T09:09:55.709Z,30.6
2018-03-22T09:10:45.746Z,30.4
2018-03-22T09:11:36.278Z,30.1
2018-03-22T09:12:23.763Z,29.9
2018-03-22T09:13:15.553Z,29.6
2018-03-22T09:14:06.188Z,29.4
2018-03-22T09:14:55.573Z,29.3
2018-03-22T09:15:46.101Z,29.2
2018-03-22T09:16:35.820Z,29.1
2018-03-22T09:17:26.315Z,28.9
2018-03-22T09:18:16.307Z,28.9
2018-03-22T09:19:06.388Z,28.7
2018-03-22T09:19:56.735Z,29.6
2018-03-22T09:20:46.266Z,30.5
2018-03-22T09:21:36.081Z,31.2
2018-03-22T09:22:26.258Z,31.8
2018-03-22T09:23:16.191Z,32.3
2018-03-22T09:24:06.227Z,32.6
2018-03-22T09:24:56.350Z,32.9
2018-03-22T09:25:46.073Z,33.3
2018-03-22T09:26:35.820Z,33.6
2018-03-22T09:27:26.883Z,33.8
2018-03-22T09:28:17.035Z,33.9
2018-03-22T09:29:08.050Z,34.1
2018-03-22T09:29:57.122Z,34.3
2018-03-22T09:30:47.612Z,34.4
2018-03-22T09:31:36.966Z,34.6
2018-03-22T09:32:27.269Z,34.8
2018-03-22T09:33:17.980Z,34.9
2018-03-22T09:34:07.282Z,35
2018-03-22T09:34:58.139Z,35.1
2018-03-22T09:35:47.705Z,35.2
2018-03-22T09:36:37.020Z,35.3
2018-03-22T09:37:26.264Z,35.4
2018-03-22T09:38:19.159Z,34.8
2018-03-22T09:39:08.422Z,34.6
2018-03-22T09:39:57.834Z,34.2
2018-03-22T09:40:47.379Z,33.8
2018-03-22T09:41:38.027Z,33.3
2018-03-22T09:42:27.492Z,32.8
2018-03-22T09:43:17.033Z,32.3
2018-03-22T09:44:07.843Z,31.9
2018-03-22T09:44:57.779Z,31.4
2018-03-22T09:45:47.752Z,31
2018-03-22T09:46:37.550Z,30.7
2018-03-22T09:47:27.739Z,30.6
2018-03-22T09:48:18.651Z,30.4
2018-03-22T09:49:08.620Z,30.1
2018-03-22T09:49:59.194Z,29.9
2018-03-22T09:50:48.271Z,29.6
2018-03-22T09:51:37.809Z,29.4
2018-03-22T09:52:28.449Z,29.3
2018-03-22T09:53:18.341Z,29.2
2018-03-22T09:54:07.970Z,29.1
2018-03-22T09:54:58.881Z,28.9
2018-03-22T09:55:49.453Z,29
2018-03-22T09:56:38.571Z,28.8
2018-03-22T09:57:30.769Z,29.9
2018-03-22T09:58:19.633Z,30.6
2018-03-22T09:59:11.173Z,31.3
2018-03-22T10:00:00.633Z,31.8
2018-03-22T10:00:50.483Z,32.3
2018-03-22T10:01:41.324Z,32.6
2018-03-22T10:02:30.542Z,33
2018-03-22T10:03:20.828Z,33.2
2018-03-22T10:04:10.625Z,33.4
2018-03-22T10:04:59.883Z,33.7
2018-03-22T10:05:50.280Z,33.9
2018-03-22T10:06:41.373Z,34
2018-03-22T10:07:31.448Z,34.2
2018-03-22T10:08:21.441Z,34.3
2018-03-22T10:09:10.470Z,34.4
2018-03-22T10:09:59.977Z,34.6
2018-03-22T10:10:50.303Z,34.7
2018-03-22T10:11:41.462Z,34.8
2018-03-22T10:12:31.508Z,34.9
2018-03-22T10:13:21.325Z,35
2018-03-22T10:14:10.513Z,35.1
2018-03-22T10:15:00.606Z,35.2
2018-03-22T10:15:51.488Z,35.3
2018-03-22T10:16:41.818Z,35.3
2018-03-22T10:17:30.943Z,34.9
2018-03-22T10:18:22.268Z,34.6
2018-03-22T10:19:12.025Z,34.2
2018-03-22T10:20:01.793Z,33.8
2018-03-22T10:20:51.762Z,33.4
2018-03-22T10:21:41.430Z,32.9
2018-03-22T10:22:32.237Z,32.4
2018-03-22T10:23:21.706Z,32
2018-03-22T10:24:11.207Z,31.6
2018-03-22T10:25:01.783Z,31.1
2018-03-22T10:25:51.714Z,30.8
2018-03-22T10:26:42.419Z,30.5
2018-03-22T10:27:32.562Z,30.5
2018-03-22T10:28:22.007Z,30.2
2018-03-22T10:29:11.771Z,29.9
2018-03-22T10:30:02.790Z,29.7
2018-03-22T10:30:52.545Z,29.5
2018-03-22T10:31:42.301Z,29.4
2018-03-22T10:32:32.802Z,29.2
2018-03-22T10:33:22.252Z,29.1
2018-03-22T10:34:11.841Z,29
2018-03-22T10:35:01.934Z,28.9
2018-03-22T10:35:51.045Z,28.8
2018-03-22T10:36:40.110Z,29.7
2018-03-22T10:37:31.713Z,30.4
2018-03-22T10:38:22.868Z,31.1
2018-03-22T10:39:11.796Z,31.6
2018-03-22T10:40:00.956Z,32.1
2018-03-22T10:40:51.644Z,32.4
2018-03-22T10:41:42.603Z,32.8
2018-03-22T10:42:31.869Z,33.1
2018-03-22T10:43:23.595Z,33.3
2018-03-22T10:44:11.538Z,33.5
2018-03-22T10:45:02.260Z,33.7
2018-03-22T10:45:52.230Z,33.9
2018-03-22T10:46:42.171Z,34.1
2018-03-22T10:47:31.776Z,34.2
2018-03-22T10:48:23.902Z,34.3
2018-03-22T10:49:12.380Z,34.4
2018-03-22T10:50:02.007Z,34.5
2018-03-22T10:50:51.726Z,34.6
2018-03-22T10:51:42.689Z,34.6
2018-03-22T10:52:33.272Z,34.8
2018-03-22T10:53:23.133Z,34.8
2018-03-22T10:54:13.073Z,34.9
2018-03-22T10:55:02.617Z,34.9
2018-03-22T10:55:54.113Z,35
2018-03-22T10:56:42.737Z,35.1
2018-03-22T10:57:32.257Z,35.1
2018-03-22T10:58:22.525Z,35.1
2018-03-22T10:59:13.835Z,35.2
2018-03-22T11:00:02.321Z,35.2
2018-03-22T11:00:53.747Z,35.3
2018-03-22T11:01:42.462Z,35.3
2018-03-22T11:02:32.552Z,34.7
2018-03-22T11:03:24.272Z,34.4
2018-03-22T11:04:14.527Z,33.9
2018-03-22T11:05:02.555Z,33.6
2018-03-22T11:05:53.524Z,33.1
2018-03-22T11:06:44.095Z,32.6
2018-03-22T11:07:33.653Z,32.1
2018-03-22T11:08:24.412Z,31.8
2018-03-22T11:09:12.957Z,31.3